Time;durP1;ratioP1;P1;durP2;ratioP2;P2;SDS_P1;SDS_P2;PMS_P1;PMS_P2;Temp;Humidity;BMP_temperature;BMP_pressure;BME280_temperature;BME280_humidity;BME280_pressure;Samples;Min_cycle;Max_cycle;Signal;HPM_P1;HPM_P2
2023/01/07 00:00:39;;;;;;;11.83;2.63;;;7.60;78.70;;;;;;4110110;28;20031;-85
2023/01/07 00:02:40;;;;;;;19.02;2.63;;;7.60;79.10;;;;;;4107774;28;20597;-84
2023/01/07 00:04:41;;;;;;;11.35;1.90;;;7.60;78.70;;;;;;4112251;28;20035;-83
2023/01/07 00:06:43;;;;;;;11.02;2.40;;;7.60;78.60;;;;;;4108890;28;20058;-84
2023/01/07 00:08:46;;;;;;;22.08;2.30;;;7.60;78.60;;;;;;4115085;28;20054;-84
2023/01/07 00:10:47;;;;;;;14.18;3.00;;;7.60;78.60;;;;;;4109072;28;20071;-85
2023/01/07 00:12:47;;;;;;;10.52;2.45;;;7.60;78.60;;;;;;4113111;28;20059;-84
2023/01/07 00:14:48;;;;;;;14.80;2.55;;;7.60;78.60;;;;;;4111223;28;20098;-84
2023/01/07 00:16:48;;;;;;;16.88;2.72;;;7.60;78.60;;;;;;4113919;28;20023;-84
2023/01/07 00:18:51;;;;;;;22.33;3.42;;;7.60;78.60;;;;;;4128864;28;21692;-84
2023/01/07 00:20:59;;;;;;;20.00;3.22;;;7.60;78.70;;;;;;4115633;28;20031;-84
2023/01/07 00:23:00;;;;;;;22.67;2.83;;;7.60;78.60;;;;;;4109829;28;20042;-84
2023/01/07 00:25:02;;;;;;;19.70;3.30;;;7.60;78.60;;;;;;4112883;28;20059;-85
2023/01/07 00:27:24;;;;;;;13.90;2.67;;;7.60;78.60;;;;;;4111102;28;20031;-84
2023/01/07 00:29:25;;;;;;;15.13;2.77;;;7.60;78.60;;;;;;4112562;28;20035;-85
2023/01/07 00:31:32;;;;;;;20.30;3.05;;;7.60;78.70;;;;;;4111728;28;20792;-84
2023/01/07 00:33:42;;;;;;;19.25;3.00;;;7.60;78.70;;;;;;4126277;28;20081;-84
2023/01/07 00:35:44;;;;;;;16.13;3.28;;;7.60;78.70;;;;;;4112283;28;20042;-84
2023/01/07 00:37:51;;;;;;;19.13;3.13;;;7.60;78.70;;;;;;4126261;28;20026;-84
2023/01/07 00:39:51;;;;;;;16.27;3.10;;;7.60;78.70;;;;;;4117525;28;20095;-84
2023/01/07 00:44:11;;;;;;;15.32;3.15;;;7.60;78.70;;;;;;4112648;28;20039;-84
2023/01/07 00:46:32;;;;;;;18.45;3.70;;;7.60;78.60;;;;;;4115026;28;20042;-84
2023/01/07 00:48:53;;;;;;;15.82;4.75;;;7.60;78.50;;;;;;4114682;28;20117;-85
2023/01/07 00:51:15;;;;;;;18.25;4.28;;;7.60;78.40;;;;;;4114204;28;20077;-85
2023/01/07 00:53:16;;;;;;;15.88;4.07;;;7.50;78.30;;;;;;4093679;28;20032;-83
2023/01/07 00:55:36;;;;;;;16.17;3.63;;;7.50;78.30;;;;;;4116548;28;20221;-85
2023/01/07 00:57:57;;;;;;;20.90;4.85;;;7.50;78.20;;;;;;4111863;28;20984;-84
2023/01/07 00:59:59;;;;;;;21.15;4.97;;;7.50;78.10;;;;;;4128019;28;20046;-84
2023/01/07 01:02:20;;;;;;;20.67;5.18;;;7.50;78.10;;;;;;4113767;28;20484;-84
2023/01/07 01:04:40;;;;;;;12.23;4.60;;;7.50;78.10;;;;;;4125777;28;20042;-85
2023/01/07 01:07:01;;;;;;;14.63;4.60;;;7.50;78.00;;;;;;4112384;28;20050;-84
2023/01/07 01:09:24;;;;;;;18.08;4.28;;;7.50;78.00;;;;;;4115505;28;20049;-83
2023/01/07 01:11:44;;;;;;;14.13;4.20;;;7.50;77.90;;;;;;4113219;28;20070;-84
2023/01/07 01:14:05;;;;;;;14.52;3.72;;;7.50;78.00;;;;;;4112641;28;20027;-84
2023/01/07 01:16:25;;;;;;;20.35;4.32;;;7.50;77.90;;;;;;4116230;28;20073;-85
2023/01/07 01:18:46;;;;;;;12.15;3.92;;;7.50;77.90;;;;;;4117033;28;20034;-84
2023/01/07 01:21:09;;;;;;;21.00;4.63;;;7.40;77.80;;;;;;4118282;28;20134;-84
2023/01/07 01:23:30;;;;;;;16.08;4.18;;;7.40;77.90;;;;;;4128253;28;20041;-84
2023/01/07 01:25:51;;;;;;;15.35;3.90;;;7.40;77.80;;;;;;4111081;28;20030;-84
2023/01/07 01:28:12;;;;;;;15.38;4.05;;;7.40;77.80;;;;;;4115393;28;20034;-84
2023/01/07 01:30:12;;;;;;;13.52;3.75;;;7.40;77.80;;;;;;4114812;28;20111;-84
2023/01/07 01:32:13;;;;;;;16.90;4.78;;;7.40;77.80;;;;;;4125895;28;20057;-85
2023/01/07 01:34:14;;;;;;;16.45;5.38;;;7.30;77.70;;;;;;4112822;28;20034;-84
2023/01/07 01:36:14;;;;;;;21.13;6.63;;;7.30;77.70;;;;;;4117262;28;20031;-84
2023/01/07 01:38:15;;;;;;;20.08;6.85;;;7.30;77.70;;;;;;4129756;28;21819;-84
2023/01/07 01:40:15;;;;;;;18.95;6.57;;;7.30;77.60;;;;;;4112426;28;20031;-84
2023/01/07 01:42:20;;;;;;;18.30;6.25;;;7.30;77.50;;;;;;4116255;28;20030;-84
2023/01/07 01:44:55;;;;;;;21.13;6.85;;;7.30;77.50;;;;;;4113850;28;20032;-86
2023/01/07 01:46:56;;;;;;;17.63;5.85;;;7.20;77.50;;;;;;4115722;28;20074;-84
2023/01/07 01:49:27;;;;;;;19.52;6.70;;;7.20;77.40;;;;;;4111749;28;20925;-84
2023/01/07 01:51:35;;;;;;;24.40;7.97;;;7.20;77.30;;;;;;4095688;28;20047;-84
2023/01/07 01:53:36;;;;;;;18.50;7.68;;;7.20;78.10;;;;;;4113478;28;20029;-85
2023/01/07 01:55:47;;;;;;;25.37;8.03;;;7.20;77.30;;;;;;4131337;28;20045;-84
2023/01/07 01:57:52;;;;;;;19.75;7.97;;;7.20;77.30;;;;;;4112987;28;20049;-83
2023/01/07 02:00:06;;;;;;;21.40;8.05;;;7.10;77.30;;;;;;4100390;28;20110;-84
2023/01/07 02:02:33;;;;;;;21.05;7.43;;;7.10;77.30;;;;;;4110579;28;20034;-84
2023/01/07 02:04:55;;;;;;;17.63;6.35;;;7.10;77.30;;;;;;4115150;28;20130;-84
2023/01/07 02:07:17;;;;;;;16.23;5.57;;;7.10;77.30;;;;;;4112543;28;20034;-84
2023/01/07 02:09:37;;;;;;;14.98;5.10;;;7.10;77.40;;;;;;4115118;28;20034;-84
2023/01/07 02:12:16;;;;;;;14.55;5.93;;;7.10;77.30;;;;;;4116932;28;20128;-84
2023/01/07 02:15:05;;;;;;;16.77;5.40;;;7.00;77.30;;;;;;4116092;28;20034;-83
2023/01/07 02:17:37;;;;;;;19.42;5.07;;;7.00;77.30;;;;;;4113136;28;20520;-84
2023/01/07 02:20:28;;;;;;;14.63;5.28;;;7.00;77.30;;;;;;4114230;28;20027;-84
2023/01/07 02:22:51;;;;;;;17.30;5.18;;;7.00;77.30;;;;;;4115099;28;20027;-85
2023/01/07 02:25:47;;;;;;;14.10;4.85;;;7.00;77.30;;;;;;4117051;28;20133;-84
2023/01/07 02:28:26;;;;;;;15.32;5.35;;;6.90;77.30;;;;;;4086510;28;20050;-83
2023/01/07 02:31:17;;;;;;;16.50;5.35;;;7.00;77.30;;;;;;4126350;28;20041;-84
2023/01/07 02:33:34;;;;;;;16.15;5.50;;;6.90;77.30;;;;;;4113296;28;20023;-83
2023/01/07 02:36:03;;;;;;;15.70;5.68;;;6.90;77.40;;;;;;4114068;28;20097;-84
2023/01/07 02:38:42;;;;;;;18.27;6.05;;;6.90;77.50;;;;;;4117003;28;20027;-84
2023/01/07 02:41:44;;;;;;;16.63;5.50;;;6.90;77.50;;;;;;4118296;28;20133;-84
2023/01/07 02:44:15;;;;;;;16.35;6.10;;;6.90;78.20;;;;;;4099712;28;20050;-84
2023/01/07 02:46:49;;;;;;;18.08;6.30;;;6.80;77.30;;;;;;4125802;28;20026;-85
2023/01/07 02:49:14;;;;;;;18.77;6.65;;;6.80;77.40;;;;;;4112976;28;20027;-84
2023/01/07 02:51:38;;;;;;;21.50;7.30;;;7.00;77.50;;;;;;4111941;28;20030;-84
2023/01/07 02:54:00;;;;;;;21.95;6.50;;;6.80;77.40;;;;;;4114833;28;20030;-85
2023/01/07 02:56:53;;;;;;;23.10;8.25;;;6.80;77.40;;;;;;4131110;28;20039;-84
2023/01/07 02:59:37;;;;;;;18.75;6.43;;;6.80;77.40;;;;;;4116718;28;20022;-84
2023/01/07 03:01:58;;;;;;;;;;;6.80;77.40;;;;;;4110863;28;20038;-84
2023/01/07 03:04:45;;;;;;;19.02;7.20;;;6.80;77.50;;;;;;4125270;28;19929;-84
2023/01/07 03:07:40;;;;;;;19.50;8.32;;;6.80;77.50;;;;;;4124822;28;20026;-84
2023/01/07 03:10:29;;;;;;;21.60;7.00;;;6.80;77.50;;;;;;4117319;28;20034;-85
2023/01/07 03:13:15;;;;;;;17.40;6.40;;;6.70;77.50;;;;;;4116150;28;20129;-84
2023/01/07 03:15:51;;;;;;;20.55;6.68;;;6.70;77.60;;;;;;4115619;28;20126;-84
2023/01/07 03:18:23;;;;;;;20.67;7.28;;;6.70;77.70;;;;;;4115466;28;20030;-84
2023/01/07 03:20:26;;;;;;;17.42;6.15;;;6.70;77.70;;;;;;4113251;28;20094;-84
2023/01/07 03:22:30;;;;;;;13.27;6.20;;;6.70;77.80;;;;;;4115389;28;20030;-85
2023/01/07 03:24:32;;;;;;;14.05;6.45;;;6.70;77.90;;;;;;4117058;28;20118;-84
2023/01/07 03:26:44;;;;;;;25.23;7.78;;;6.80;78.00;;;;;;4115723;28;20073;-84
2023/01/07 03:28:46;;;;;;;17.55;7.82;;;6.70;78.00;;;;;;4113917;28;20026;-84
2023/01/07 03:30:50;;;;;;;23.60;8.70;;;6.70;78.10;;;;;;4115793;28;20027;-84
2023/01/07 03:32:59;;;;;;;16.83;8.02;;;6.70;78.10;;;;;;4114954;28;20039;-83
2023/01/07 03:34:59;;;;;;;25.65;8.38;;;6.70;78.10;;;;;;4096685;28;20043;-83
2023/01/07 03:37:08;;;;;;;21.13;9.00;;;6.70;78.10;;;;;;4116704;28;20390;-84
2023/01/07 03:39:10;;;;;;;19.85;8.13;;;6.70;78.10;;;;;;4117627;28;20106;-84
2023/01/07 03:42:38;;;;;;;25.33;8.75;;;6.70;78.20;;;;;;4114437;28;20034;-84
2023/01/07 03:43:32;;;;;;;16.70;6.95;;;6.70;78.20;;;;;;4116805;28;20038;-83
2023/01/07 03:45:33;;;;;;;18.80;7.35;;;6.70;78.20;;;;;;4118247;28;20088;-85
2023/01/07 03:47:35;;;;;;;20.42;7.07;;;6.70;78.30;;;;;;4112034;28;20062;-85
2023/01/07 03:49:36;;;;;;;18.60;6.50;;;6.70;78.30;;;;;;4124994;28;20026;-87
2023/01/07 03:51:37;;;;;;;18.63;6.60;;;6.70;78.30;;;;;;4113165;28;20031;-84
2023/01/07 03:53:38;;;;;;;18.55;7.25;;;6.70;78.40;;;;;;4113589;28;20031;-84
2023/01/07 03:55:38;;;;;;;20.40;7.25;;;6.70;78.40;;;;;;4132077;28;20050;-85
2023/01/07 03:57:39;;;;;;;20.98;6.43;;;6.70;78.40;;;;;;4101230;28;20015;-85
2023/01/07 03:59:41;;;;;;;18.40;7.38;;;6.70;78.40;;;;;;4129067;28;20090;-84
2023/01/07 04:01:42;;;;;;;12.77;5.93;;;6.70;78.40;;;;;;4113970;28;20030;-83
2023/01/07 04:03:43;;;;;;;20.08;6.97;;;6.70;78.40;;;;;;4119619;28;20046;-84
2023/01/07 04:05:43;;;;;;;19.63;7.07;;;6.70;78.50;;;;;;4100046;28;20520;-85
2023/01/07 04:08:04;;;;;;;17.70;7.00;;;6.70;78.50;;;;;;4114541;28;20035;-84
2023/01/07 04:10:25;;;;;;;17.55;6.63;;;6.70;78.40;;;;;;4112073;28;20038;-84
2023/01/07 04:12:26;;;;;;;17.35;7.15;;;6.70;78.30;;;;;;4113237;28;20508;-84
2023/01/07 04:14:47;;;;;;;18.75;7.25;;;6.70;78.30;;;;;;4115821;28;20039;-84
2023/01/07 04:17:08;;;;;;;18.23;7.43;;;6.70;78.30;;;;;;4131303;28;20030;-84
2023/01/07 04:19:28;;;;;;;20.83;7.90;;;6.70;78.30;;;;;;4115212;28;20034;-84
2023/01/07 04:21:49;;;;;;;19.67;7.95;;;6.70;78.40;;;;;;4115982;28;20031;-83
2023/01/07 04:24:10;;;;;;;18.85;7.90;;;6.70;78.40;;;;;;4125792;28;20041;-84
2023/01/07 04:26:32;;;;;;;24.20;8.50;;;6.70;78.50;;;;;;4118226;28;20077;-84
2023/01/07 04:28:53;;;;;;;23.20;8.98;;;6.70;78.50;;;;;;4116056;28;20055;-84
2023/01/07 04:31:13;;;;;;;20.75;8.25;;;6.70;78.50;;;;;;4118800;28;20038;-84
2023/01/07 04:33:34;;;;;;;22.15;8.27;;;6.70;78.60;;;;;;4116225;28;20117;-84
2023/01/07 04:35:35;;;;;;;20.50;8.73;;;6.70;78.60;;;;;;4116356;28;20100;-85
2023/01/07 04:37:36;;;;;;;21.65;8.90;;;6.80;78.80;;;;;;4129130;28;20038;-84
2023/01/07 04:39:36;;;;;;;22.88;8.77;;;6.80;78.90;;;;;;4113621;28;20498;-85
2023/01/07 04:41:37;;;;;;;24.52;10.50;;;6.70;78.90;;;;;;4100136;28;20028;-85
2023/01/07 04:43:38;;;;;;;25.85;9.52;;;6.80;79.00;;;;;;4112489;28;20046;-83
2023/01/07 04:45:38;;;;;;;25.33;10.63;;;6.70;79.00;;;;;;4116077;28;20521;-84
2023/01/07 04:47:39;;;;;;;23.73;11.05;;;6.80;79.10;;;;;;4113089;28;20069;-85
2023/01/07 04:49:40;;;;;;;30.90;11.07;;;6.80;79.10;;;;;;4116499;28;20463;-83
2023/01/07 04:51:41;;;;;;;28.42;11.43;;;6.80;79.10;;;;;;4115185;28;20379;-83
2023/01/07 04:53:42;;;;;;;23.58;11.45;;;6.80;79.10;;;;;;4112620;28;20049;-83
2023/01/07 04:55:43;;;;;;;27.35;11.93;;;6.90;79.30;;;;;;4114235;28;20027;-82
2023/01/07 04:57:43;;;;;;;24.48;12.02;;;6.80;79.20;;;;;;4116606;28;20034;-83
2023/01/07 04:59:44;;;;;;;27.20;12.73;;;6.80;79.40;;;;;;4128333;28;20034;-83
2023/01/07 05:01:45;;;;;;;28.88;11.70;;;6.80;79.40;;;;;;4117763;28;20524;-84
2023/01/07 05:03:45;;;;;;;33.53;13.90;;;6.90;79.40;;;;;;4111659;28;20613;-83
2023/01/07 05:05:46;;;;;;;37.05;13.43;;;6.90;79.50;;;;;;4116538;28;20022;-85
2023/01/07 05:07:46;;;;;;;32.53;13.48;;;6.90;79.60;;;;;;4115961;28;20500;-84
2023/01/07 05:09:47;;;;;;;33.00;14.20;;;6.90;79.60;;;;;;4115719;28;20489;-83
2023/01/07 05:11:48;;;;;;;32.65;14.75;;;6.90;79.70;;;;;;4119371;28;20061;-83
2023/01/07 05:13:48;;;;;;;37.42;16.73;;;6.90;79.60;;;;;;4116891;28;20509;-84
2023/01/07 05:15:52;;;;;;;34.10;16.42;;;6.90;79.70;;;;;;4118647;28;20034;-83
2023/01/07 05:18:13;;;;;;;39.40;15.73;;;7.00;79.90;;;;;;4112593;28;20117;-84
2023/01/07 05:20:33;;;;;;;35.25;16.90;;;7.00;79.90;;;;;;4115574;28;20027;-84
2023/01/07 05:22:54;;;;;;;35.03;16.65;;;7.00;80.00;;;;;;4113727;28;20053;-84
2023/01/07 05:25:15;;;;;;;34.72;16.10;;;7.00;80.00;;;;;;4113337;28;20038;-83
2023/01/07 05:27:35;;;;;;;32.80;15.63;;;7.00;80.10;;;;;;4116916;28;20034;-84
2023/01/07 05:29:56;;;;;;;37.00;16.65;;;7.00;80.10;;;;;;4113302;28;20022;-83
2023/01/07 05:32:17;;;;;;;39.75;16.80;;;7.10;80.20;;;;;;4116380;28;20034;-83
2023/01/07 05:34:37;;;;;;;38.38;17.08;;;7.10;80.30;;;;;;4113146;28;20054;-83
2023/01/07 05:36:58;;;;;;;36.38;16.70;;;7.10;80.40;;;;;;4113597;28;20038;-83
2023/01/07 05:39:18;;;;;;;40.50;17.45;;;7.10;80.40;;;;;;4127088;28;20030;-82
2023/01/07 05:41:39;;;;;;;39.95;18.45;;;7.10;80.50;;;;;;4119378;28;20031;-83
2023/01/07 05:43:40;;;;;;;41.28;19.13;;;7.20;80.60;;;;;;4115778;28;20233;-83
2023/01/07 05:45:43;;;;;;;38.83;18.98;;;7.20;80.70;;;;;;4114368;28;20526;-83
2023/01/07 05:47:44;;;;;;;41.50;17.88;;;7.20;80.80;;;;;;4113985;28;20034;-84
2023/01/07 05:49:44;;;;;;;37.65;18.17;;;7.20;80.90;;;;;;4115389;28;20389;-83
2023/01/07 05:51:45;;;;;;;36.58;17.70;;;7.20;80.90;;;;;;4116919;28;20802;-83
2023/01/07 05:53:46;;;;;;;36.78;18.98;;;7.30;81.00;;;;;;4115980;28;20038;-82
2023/01/07 05:55:46;;;;;;;38.85;18.65;;;7.30;81.00;;;;;;4116939;28;20752;-82
2023/01/07 05:57:47;;;;;;;33.70;17.88;;;7.30;81.10;;;;;;4115946;28;20932;-82
2023/01/07 05:59:48;;;;;;;31.95;17.30;;;7.30;81.00;;;;;;4132985;28;20050;-84
2023/01/07 06:01:48;;;;;;;39.90;17.77;;;7.30;81.10;;;;;;4096852;28;20539;-82
2023/01/07 06:03:49;;;;;;;36.75;17.30;;;7.30;81.10;;;;;;4129174;28;21076;-82
2023/01/07 06:05:50;;;;;;;38.58;17.23;;;7.30;81.10;;;;;;4116643;28;20038;-84
2023/01/07 06:07:51;;;;;;;32.70;16.52;;;7.40;81.20;;;;;;4115721;28;20038;-84
2023/01/07 06:09:51;;;;;;;34.05;17.40;;;7.40;81.20;;;;;;4124102;28;20489;-84
2023/01/07 06:11:52;;;;;;;27.63;14.90;;;7.50;81.30;;;;;;4131444;28;20069;-83
2023/01/07 06:13:53;;;;;;;28.15;15.20;;;7.40;81.20;;;;;;4116338;28;20604;-83
2023/01/07 06:15:59;;;;;;;30.73;15.65;;;7.40;81.20;;;;;;4114437;28;20085;-83
2023/01/07 06:18:00;;;;;;;26.35;14.63;;;7.40;81.20;;;;;;4115725;28;20041;-83
2023/01/07 06:20:01;;;;;;;29.55;15.43;;;7.50;81.20;;;;;;4113816;28;20397;-82
2023/01/07 06:22:02;;;;;;;24.15;13.70;;;7.50;81.30;;;;;;4116962;28;20059;-82
2023/01/07 06:24:03;;;;;;;23.05;13.43;;;7.50;81.20;;;;;;4116607;28;20026;-83
2023/01/07 06:26:04;;;;;;;22.85;13.13;;;7.50;81.30;;;;;;4103815;28;20393;-84
2023/01/07 06:28:24;;;;;;;21.30;12.43;;;7.50;81.30;;;;;;4116729;28;20027;-82
2023/01/07 06:30:46;;;;;;;20.50;11.98;;;7.50;81.30;;;;;;4128909;28;20042;-82
2023/01/07 06:32:47;;;;;;;21.10;11.70;;;7.50;82.10;;;;;;4116872;28;20035;-83
2023/01/07 06:34:48;;;;;;;19.92;11.05;;;7.50;81.30;;;;;;4115299;28;20092;-82
2023/01/07 06:37:08;;;;;;;21.33;11.23;;;7.50;81.30;;;;;;4112932;28;20118;-83
2023/01/07 06:39:10;;;;;;;20.48;11.27;;;7.50;82.10;;;;;;4115350;28;20026;-83
2023/01/07 06:41:21;;;;;;;21.38;11.15;;;7.50;81.40;;;;;;4113393;28;20101;-83
2023/01/07 06:43:42;;;;;;;18.33;10.65;;;7.60;81.40;;;;;;4119474;28;20034;-84
2023/01/07 06:46:03;;;;;;;19.92;11.55;;;7.60;81.50;;;;;;4116913;28;20109;-82
2023/01/07 06:48:23;;;;;;;17.67;10.63;;;7.60;81.50;;;;;;4115359;28;20030;-82
2023/01/07 06:50:43;;;;;;;17.20;9.77;;;7.60;81.60;;;;;;4098556;28;20031;-83
2023/01/07 06:53:04;;;;;;;15.55;9.13;;;7.60;81.60;;;;;;4124979;28;20050;-82
2023/01/07 06:55:25;;;;;;;14.10;8.75;;;7.60;81.60;;;;;;4113154;28;20038;-83
2023/01/07 06:57:45;;;;;;;15.27;8.77;;;7.60;81.70;;;;;;4112947;28;20417;-84
2023/01/07 07:00:06;;;;;;;13.93;7.93;;;7.60;81.70;;;;;;4115448;28;20105;-83
2023/01/07 07:02:27;;;;;;;13.93;7.82;;;7.60;81.70;;;;;;4126310;28;20065;-82
2023/01/07 07:04:48;;;;;;;14.60;9.10;;;7.70;81.90;;;;;;4110365;28;20046;-82
2023/01/07 07:07:09;;;;;;;14.43;8.57;;;7.70;82.00;;;;;;4110097;28;20070;-82
2023/01/07 07:09:29;;;;;;;11.60;7.20;;;7.70;81.90;;;;;;4112135;28;20035;-83
2023/01/07 07:11:50;;;;;;;11.45;7.10;;;7.70;82.00;;;;;;4112859;28;20031;-85
2023/01/07 07:14:11;;;;;;;14.60;8.45;;;7.70;82.80;;;;;;4115462;28;20061;-82
2023/01/07 07:16:32;;;;;;;13.40;7.80;;;7.70;82.10;;;;;;4112435;28;20074;-83
2023/01/07 07:18:53;;;;;;;12.50;7.18;;;7.70;82.10;;;;;;4114846;28;20035;-83
2023/01/07 07:20:53;;;;;;;13.52;7.03;;;7.70;82.10;;;;;;4113725;28;20027;-83
2023/01/07 07:22:54;;;;;;;10.52;6.50;;;7.90;82.30;;;;;;4111713;28;20135;-84
2023/01/07 07:24:54;;;;;;;10.10;5.95;;;7.80;82.40;;;;;;4113376;28;20043;-84
2023/01/07 07:26:55;;;;;;;10.68;5.57;;;7.80;82.40;;;;;;4111361;28;20396;-82
2023/01/07 07:28:56;;;;;;;8.35;5.70;;;7.90;82.60;;;;;;4099424;28;20478;-83
2023/01/07 07:30:56;;;;;;;8.93;4.80;;;7.90;82.70;;;;;;4097996;28;20447;-84
2023/01/07 07:33:02;;;;;;;7.38;4.72;;;7.90;82.70;;;;;;4123714;28;20030;-83
2023/01/07 07:35:02;;;;;;;7.20;4.78;;;7.90;82.90;;;;;;4124921;28;20105;-83
2023/01/07 07:37:03;;;;;;;7.95;4.90;;;8.00;83.00;;;;;;4106473;28;20023;-82
2023/01/07 07:39:04;;;;;;;10.45;4.72;;;8.00;83.10;;;;;;4110466;28;20026;-83
2023/01/07 07:41:05;;;;;;;7.55;4.65;;;8.00;83.20;;;;;;4105848;28;20400;-83
2023/01/07 07:43:05;;;;;;;6.82;4.47;;;8.00;83.30;;;;;;4109369;28;20031;-83
2023/01/07 07:45:07;;;;;;;7.22;3.92;;;8.00;83.50;;;;;;4111877;28;20030;-84
2023/01/07 07:47:27;;;;;;;6.47;4.35;;;8.10;83.50;;;;;;4104098;28;20027;-83
2023/01/07 07:49:49;;;;;;;7.18;4.50;;;8.10;83.60;;;;;;4115052;28;20035;-83
2023/01/07 07:52:09;;;;;;;6.97;4.30;;;8.30;83.70;;;;;;4122729;28;20090;-83
2023/01/07 07:54:27;;;;;;;6.68;4.50;;;8.20;83.60;;;;;;4110054;28;20033;-82
2023/01/07 07:56:47;;;;;;;7.80;3.95;;;8.20;83.70;;;;;;4107355;28;20031;-84
2023/01/07 07:59:08;;;;;;;6.90;4.28;;;8.30;83.70;;;;;;4120673;28;20031;-84
2023/01/07 08:01:28;;;;;;;9.13;4.70;;;8.30;83.80;;;;;;4117483;28;20030;-83
2023/01/07 08:03:49;;;;;;;7.53;4.68;;;8.30;83.80;;;;;;4111937;28;20043;-82
2023/01/07 08:06:12;;;;;;;6.63;4.22;;;8.40;83.90;;;;;;4118188;28;20031;-84
2023/01/07 08:08:32;;;;;;;8.30;4.80;;;8.60;84.00;;;;;;4115103;28;20186;-83
2023/01/07 08:10:56;;;;;;;7.85;5.22;;;8.40;83.90;;;;;;4113330;28;20047;-83
2023/01/07 08:13:18;;;;;;;7.65;4.93;;;8.60;84.10;;;;;;4109089;28;20097;-83
2023/01/07 08:15:38;;;;;;;10.40;5.45;;;8.50;84.10;;;;;;4128989;28;20428;-83
2023/01/07 08:18:02;;;;;;;9.20;6.07;;;8.50;84.00;;;;;;4113111;28;20045;-82
2023/01/07 08:20:22;;;;;;;12.55;6.45;;;8.60;84.20;;;;;;4115249;28;20177;-83
2023/01/07 08:22:43;;;;;;;14.55;6.80;;;8.60;84.20;;;;;;4110468;28;20062;-83
2023/01/07 08:25:04;;;;;;;11.75;7.40;;;8.80;84.50;;;;;;4110330;28;20032;-83
2023/01/07 08:27:26;;;;;;;12.65;8.15;;;8.70;84.40;;;;;;4110081;28;20039;-82
2023/01/07 08:30:08;;;;;;;16.33;9.17;;;8.70;84.40;;;;;;4111709;28;20026;-84
2023/01/07 08:39:54;;;;;;;14.80;9.27;;;8.80;84.70;;;;;;3990511;29;20153;-83
2023/01/07 08:42:41;;;;;;;17.38;11.38;;;8.90;85.40;;;;;;3996863;29;20620;-85
2023/01/07 08:52:37;;;;;;;20.55;13.30;;;9.00;84.80;;;;;;4350416;23;20053;-83
2023/01/07 08:58:06;;;;;;;20.10;13.18;;;9.10;85.60;;;;;;4148094;28;20105;-84
2023/01/07 09:00:27;;;;;;;21.42;12.85;;;9.20;85.40;;;;;;4139974;28;20038;-83
2023/01/07 09:02:33;;;;;;;21.23;13.02;;;9.20;85.30;;;;;;4138595;28;20075;-83
2023/01/07 09:04:53;;;;;;;18.77;13.60;;;9.30;86.20;;;;;;4143190;28;20037;-83
2023/01/07 09:07:14;;;;;;;26.67;15.55;;;9.30;85.50;;;;;;4163347;28;20073;-83
2023/01/07 09:09:21;;;;;;;23.05;15.18;;;9.30;85.80;;;;;;4142248;28;20036;-85
2023/01/07 09:11:44;;;;;;;19.45;14.57;;;9.30;85.60;;;;;;4134408;28;20034;-84
2023/01/07 09:14:05;;;;;;;18.30;13.00;;;9.30;85.80;;;;;;4159316;28;20048;-84
2023/01/07 09:16:26;;;;;;;18.83;13.43;;;9.30;85.60;;;;;;4139693;28;20120;-83
2023/01/07 09:18:46;;;;;;;19.77;13.48;;;9.40;85.60;;;;;;4143750;28;20049;-83
2023/01/07 09:21:07;;;;;;;20.27;13.68;;;9.60;85.60;;;;;;4139916;28;20034;-84
2023/01/07 09:23:28;;;;;;;20.38;13.52;;;9.60;85.50;;;;;;4136648;28;20045;-84
2023/01/07 09:25:28;;;;;;;22.17;14.25;;;9.50;85.50;;;;;;4142041;28;20034;-83
2023/01/07 09:27:29;;;;;;;19.65;13.80;;;9.50;85.50;;;;;;4142063;28;20030;-84
2023/01/07 09:29:29;;;;;;;21.63;13.20;;;9.60;85.60;;;;;;4144256;28;20038;-83
2023/01/07 09:31:32;;;;;;;21.58;13.35;;;9.60;85.50;;;;;;4154832;28;20071;-84
2023/01/07 09:33:33;;;;;;;;;;;9.60;85.50;;;;;;4141854;28;20023;-83
2023/01/07 09:35:34;;;;;;;20.92;13.77;;;9.70;85.90;;;;;;4143965;28;19910;-84
2023/01/07 09:37:35;;;;;;;18.98;13.50;;;9.70;85.30;;;;;;4144566;28;20037;-83
2023/01/07 09:39:36;;;;;;;21.58;13.23;;;9.70;85.20;;;;;;4143186;28;20109;-85
2023/01/07 09:41:52;;;;;;;22.02;13.40;;;9.80;85.30;;;;;;4145798;28;20666;-84
2023/01/07 09:43:58;;;;;;;20.98;13.27;;;9.80;85.30;;;;;;4144671;28;20038;-83
2023/01/07 09:46:02;;;;;;;21.27;12.93;;;9.80;85.20;;;;;;4145985;28;20049;-83
2023/01/07 09:48:11;;;;;;;20.08;12.77;;;9.80;85.30;;;;;;4144938;28;20041;-84
2023/01/07 09:50:48;;;;;;;19.35;12.93;;;9.80;85.30;;;;;;4159697;28;20028;-83
2023/01/07 09:52:52;;;;;;;18.13;11.95;;;9.90;85.50;;;;;;4157627;28;20030;-84
2023/01/07 09:55:05;;;;;;;21.67;13.38;;;9.90;85.30;;;;;;4151150;28;20057;-83
2023/01/07 09:57:13;;;;;;;18.85;12.82;;;9.90;85.30;;;;;;4129004;28;20030;-85
2023/01/07 09:59:15;;;;;;;20.48;12.35;;;9.90;85.10;;;;;;4159175;28;20022;-84
2023/01/07 10:02:01;;;;;;;20.08;12.68;;;10.00;85.10;;;;;;4131942;28;20058;-83
2023/01/07 10:04:52;;;;;;;17.05;11.75;;;10.00;85.00;;;;;;4137525;28;20085;-84
2023/01/07 10:07:18;;;;;;;21.88;12.90;;;10.00;84.90;;;;;;4148780;28;20129;-84
2023/01/07 10:09:42;;;;;;;20.95;11.20;;;10.00;84.70;;;;;;4134998;28;20084;-84
2023/01/07 10:12:30;;;;;;;18.58;11.75;;;10.00;84.60;;;;;;4142566;28;20038;-84
2023/01/07 10:15:17;;;;;;;19.00;11.88;;;10.00;84.70;;;;;;4132973;28;20068;-84
2023/01/07 10:21:11;;;;;;;;;;;10.10;84.70;;;;;;4138912;28;20057;-84
2023/01/07 10:23:36;;;;;;;18.95;11.18;;;10.20;85.20;;;;;;4136928;28;19909;-84
2023/01/07 10:26:00;;;;;;;19.92;13.25;;;10.20;84.40;;;;;;4141179;28;20038;-83
2023/01/07 10:28:39;;;;;;;19.63;11.82;;;10.20;84.40;;;;;;4142599;28;20026;-84
2023/01/07 10:31:00;;;;;;;21.40;11.05;;;10.10;84.20;;;;;;4141390;28;20034;-85
2023/01/07 10:33:29;;;;;;;16.23;12.00;;;10.10;84.20;;;;;;4144219;28;20029;-85
2023/01/07 10:35:33;;;;;;;21.35;11.65;;;10.10;84.40;;;;;;4138234;28;20029;-84
2023/01/07 10:37:38;;;;;;;16.88;12.15;;;10.20;84.40;;;;;;4134538;28;20049;-85
2023/01/07 10:40:10;;;;;;;17.42;11.32;;;10.20;84.40;;;;;;4141570;28;20021;-86
2023/01/07 10:42:27;;;;;;;22.27;12.40;;;10.10;84.30;;;;;;4137348;28;20033;-85
2023/01/07 10:44:46;;;;;;;18.33;12.25;;;10.10;84.30;;;;;;4155023;28;20054;-85
2023/01/07 10:47:42;;;;;;;17.20;12.77;;;10.10;84.20;;;;;;4156034;28;20041;-84
2023/01/07 10:50:22;;;;;;;17.88;11.98;;;10.10;84.30;;;;;;4127590;28;20215;-84
2023/01/07 10:52:51;;;;;;;18.58;12.57;;;10.10;84.30;;;;;;4111228;28;20378;-85
2023/01/07 10:55:23;;;;;;;24.33;13.73;;;10.20;84.30;;;;;;4135805;28;21041;-87
2023/01/07 10:57:27;;;;;;;20.88;13.43;;;10.20;84.30;;;;;;4146313;28;20034;-86
2023/01/07 10:59:28;;;;;;;23.00;13.48;;;10.20;83.40;;;;;;4141136;28;20029;-85
2023/01/07 11:01:35;;;;;;;21.50;13.98;;;10.20;84.20;;;;;;4138229;28;20069;-86
2023/01/07 11:03:39;;;;;;;21.67;13.05;;;10.30;84.20;;;;;;4142065;28;20026;-85
2023/01/07 11:05:39;;;;;;;19.13;12.68;;;10.20;84.10;;;;;;4139880;28;20026;-85
2023/01/07 11:07:48;;;;;;;22.58;12.60;;;10.20;84.10;;;;;;4145628;28;20030;-87
2023/01/07 11:09:49;;;;;;;16.33;12.10;;;10.20;84.10;;;;;;4124526;28;20064;-86
2023/01/07 11:11:54;;;;;;;15.95;11.00;;;10.20;84.10;;;;;;4144497;28;20026;-86
2023/01/07 11:14:05;;;;;;;17.02;11.75;;;10.20;84.10;;;;;;4143710;28;20065;-85
2023/01/07 11:16:38;;;;;;;15.80;11.88;;;10.20;84.10;;;;;;4145894;28;20057;-84
2023/01/07 11:19:05;;;;;;;15.18;11.60;;;10.20;84.00;;;;;;4142980;28;20049;-85
2023/01/07 11:21:34;;;;;;;17.90;11.75;;;10.20;83.90;;;;;;4139684;28;20053;-85
2023/01/07 11:23:54;;;;;;;15.63;11.13;;;10.20;83.80;;;;;;4142702;28;20030;-84
2023/01/07 11:26:31;;;;;;;14.45;9.88;;;10.20;83.70;;;;;;4144168;28;20092;-84
2023/01/07 11:29:13;;;;;;;16.52;10.80;;;10.20;83.80;;;;;;4143499;28;20038;-87
2023/01/07 11:31:55;;;;;;;14.93;10.73;;;10.20;83.70;;;;;;4142770;28;20045;-85
2023/01/07 11:34:24;;;;;;;15.50;10.73;;;10.30;83.70;;;;;;4139348;28;20054;-85
2023/01/07 11:36:41;;;;;;;14.90;10.02;;;10.20;83.50;;;;;;4139992;28;20037;-85
2023/01/07 11:38:46;;;;;;;17.13;10.80;;;10.30;83.60;;;;;;4141701;28;20061;-85
2023/01/07 11:40:58;;;;;;;18.38;11.02;;;10.30;83.60;;;;;;4144334;28;20288;-86
2023/01/07 11:43:21;;;;;;;25.45;10.93;;;10.30;83.60;;;;;;4138260;28;21678;-86
2023/01/07 11:45:27;;;;;;;18.83;11.18;;;10.30;83.60;;;;;;4145613;28;20018;-86
2023/01/07 11:47:28;;;;;;;16.52;10.52;;;10.30;83.50;;;;;;4149491;28;20030;-85
2023/01/07 11:49:29;;;;;;;15.70;10.48;;;10.30;83.60;;;;;;4147815;28;20037;-87
2023/01/07 11:51:38;;;;;;;14.00;9.73;;;10.30;83.50;;;;;;4145930;28;20061;-86
2023/01/07 11:53:48;;;;;;;16.80;10.10;;;10.40;83.50;;;;;;4142780;28;20028;-84
2023/01/07 11:56:00;;;;;;;14.32;9.15;;;10.30;83.50;;;;;;4138850;28;20030;-85
2023/01/07 11:58:21;;;;;;;14.95;9.60;;;10.40;83.40;;;;;;4146187;28;20053;-85
2023/01/07 12:00:42;;;;;;;18.63;9.50;;;10.40;83.30;;;;;;4141968;28;20037;-85